aviador You're here:

SAWH Decoded Metar

USHUAIA in ARGENTINA
Report Time2017-12-16 15:00:00
UTC Time2017-12-16 16:47:45
Flight Rules Old
Wind230° at 24 kt
W.Decomp.*RWY 25: 19.9 kt HW 13.4 kt LCW
W.Rank230° ranks 1
Current wind is above 230° avg. (19.0)
Visibility9999 m
Phenomena:Vicinity showers
Clouds:Broken 030 Hf
Broken 100 Hf
Expected CloudBase > 2,800 ft AGL from Temp-Dew spread
Ceiling3,000 ft
Temp08°C (ISA -7)
Dew Point01°C (62% RH)
AAT-2.5°C
QNH0984 hPa
Density Alt305 ft
Elevation46 ft
Report Wrong Elevation
Raw Report
METAR SAWH 161500Z 23024KT 9999 VCSH BKN030 BKN100 08/01 Q0984=

Extra information for SAWH:More info

Metar Taf Metar & Taf Last 4 Metars F.Rules Stats Wind Profile Meteogram Temp Stats Airport Information Weather charts Add Link Nearby VenuesMetar ALERT Operation Metar Decoded Social comments